Time;durP1;ratioP1;P1;durP2;ratioP2;P2;SDS_P1;SDS_P2;PMS_P1;PMS_P2;Temp;Humidity;BMP_temperature;BMP_pressure;BME280_temperature;BME280_humidity;BME280_pressure;Samples;Min_cycle;Max_cycle;Signal;HPM_P1;HPM_P2
2021/07/28 00:30:32;;;;;;;23.77;16.13;;;17.10;99.90;;;;;;5009142;23;27570275;-91
2021/07/28 01:49:11;;;;;;;;;;;;;;;;;;;;;
2021/07/28 02:22:49;;;;;;;;;;;;;;;;;;;;;
2021/07/28 03:26:19;;;;;;;;;;;;;;;;;;;;;
2021/07/28 03:29:22;;;;;;;13.10;9.52;;;16.30;99.90;;;;;;6158615;23;20772;-90
2021/07/28 03:32:43;;;;;;;15.67;9.73;;;16.30;99.90;;;;;;6051859;23;20079;-93
2021/07/28 03:35:46;;;;;;;;;;;;;;;;;;;;;
2021/07/28 03:39:36;;;;;;;17.02;10.00;;;16.30;99.90;;;;;;6071027;23;20515;-91
2021/07/28 03:51:26;;;;;;;13.48;9.65;;;16.20;99.90;;;;;;5892643;24;20421;-92
2021/07/28 03:54:12;;;;;;;13.63;9.90;;;16.20;99.90;;;;;;5861389;24;20065;-91
2021/07/28 04:02:02;;;;;;;14.35;9.40;;;16.20;99.90;;;;;;6101056;23;20039;-92
2021/07/28 04:25:27;;;;;;;13.63;10.07;;;16.10;99.90;;;;;;6075960;23;20426;-84
2021/07/28 04:29:08;;;;;;;13.98;10.20;;;16.10;99.90;;;;;;6086609;23;20057;-84
2021/07/28 04:49:08;;;;;;;18.02;10.45;;;16.20;99.90;;;;;;5820457;24;20114;-91
2021/07/28 04:56:46;;;;;;;16.73;10.20;;;16.00;99.90;;;;;;5848931;24;21013;-89
2021/07/28 05:00:40;;;;;;;14.75;10.05;;;16.00;99.90;;;;;;5841148;24;20126;-88
2021/07/28 05:12:20;;;;;;;15.60;11.10;;;16.10;99.90;;;;;;5839962;24;20022;-85
2021/07/28 05:15:06;;;;;;;16.77;11.68;;;16.10;99.90;;;;;;5823741;24;20105;-90
2021/07/28 05:17:54;;;;;;;20.13;12.63;;;16.00;99.90;;;;;;6147967;23;20110;-90
2021/07/28 05:20:41;;;;;;;14.02;10.15;;;16.00;99.90;;;;;;6244198;23;20102;-89
2021/07/28 05:23:28;;;;;;;13.52;10.48;;;16.00;99.90;;;;;;6224076;23;20052;-92
2021/07/28 05:26:18;;;;;;;14.52;9.95;;;16.00;99.90;;;;;;6221109;23;20024;-91
2021/07/28 05:29:05;;;;;;;13.90;10.13;;;16.00;99.90;;;;;;6220460;23;20046;-89
2021/07/28 05:31:53;;;;;;;12.77;10.50;;;16.00;99.90;;;;;;6244200;23;20362;-88
2021/07/28 05:34:40;;;;;;;12.73;9.68;;;16.10;99.90;;;;;;6246389;22;20034;-88
2021/07/28 05:37:28;;;;;;;14.95;9.95;;;16.10;99.90;;;;;;6220527;23;20028;-88
2021/07/28 05:40:16;;;;;;;13.43;9.65;;;16.10;99.90;;;;;;6223736;23;20028;-87
2021/07/28 05:43:04;;;;;;;14.40;10.23;;;16.10;99.90;;;;;;6220583;23;20024;-88
2021/07/28 05:45:54;;;;;;;12.55;9.88;;;16.10;99.90;;;;;;6220627;23;20024;-90
2021/07/28 05:48:50;;;;;;;13.68;9.55;;;16.10;99.90;;;;;;6221166;23;20546;-90
2021/07/28 05:51:38;;;;;;;13.80;10.00;;;16.10;99.90;;;;;;6242511;23;20039;-90
2021/07/28 05:54:26;;;;;;;14.40;10.13;;;16.20;99.90;;;;;;6247083;22;20039;-92
2021/07/28 05:57:13;;;;;;;14.43;9.23;;;16.20;99.90;;;;;;6224307;23;20039;-89
2021/07/28 06:04:43;;;;;;;12.43;10.77;;;16.20;99.90;;;;;;6256118;23;20110;-91
2021/07/28 06:08:27;;;;;;;20.55;10.73;;;16.20;99.90;;;;;;6215794;23;20019;-92
2021/07/28 06:11:57;;;;;;;15.35;9.60;;;16.20;99.90;;;;;;6228355;23;20105;-92
2021/07/28 06:14:51;;;;;;;15.85;10.82;;;16.10;99.90;;;;;;6229413;23;20019;-92
2021/07/28 06:17:44;;;;;;;15.70;11.02;;;16.10;99.90;;;;;;6227470;23;20023;-94
2021/07/28 06:20:59;;;;;;;;;;;;;;;;;;;;;
2021/07/28 06:24:19;;;;;;;16.33;12.18;;;16.00;99.90;;;;;;6138662;23;20500;-89
2021/07/28 10:57:38;;;;;;;6.57;5.18;;;21.00;99.90;;;;;;6324490;22;20026;-91
2021/07/28 11:01:09;;;;;;;8.52;4.65;;;20.30;99.90;;;;;;6239916;22;20027;-90
2021/07/28 11:04:45;;;;;;;9.80;4.65;;;20.10;99.90;;;;;;6191488;23;20109;-93
2021/07/28 11:07:59;;;;;;;5.75;4.63;;;19.90;99.90;;;;;;6102001;23;20500;-89
2021/07/28 11:11:18;;;;;;;7.22;4.50;;;20.10;99.90;;;;;;6081519;23;20077;-93
2021/07/28 11:18:51;;;;;;;4.90;3.90;;;22.30;99.90;;;;;;5961148;24;20153;-91
2021/07/28 11:23:14;;;;;;;5.93;3.90;;;23.60;99.90;;;;;;5985655;24;20048;-91
2021/07/28 11:49:09;;;;;;;5.82;4.05;;;24.50;90.80;;;;;;6085980;22;20015;-91
2021/07/28 11:52:32;;;;;;;;;;;;;;;;;;;;;
2021/07/28 11:55:33;;;;;;;4.72;4.28;;;24.50;88.80;;;;;;6246534;23;20053;-93
2021/07/28 11:58:24;;;;;;;5.50;3.72;;;24.70;88.20;;;;;;6246740;23;20495;-92
2021/07/28 12:02:20;;;;;;;;;;;;;;;;;;;;;
2021/07/28 12:05:38;;;;;;;5.57;4.25;;;24.60;84.40;;;;;;6246596;23;20024;-92
2021/07/28 12:09:29;;;;;;;6.05;3.72;;;24.70;86.30;;;;;;6249744;22;20024;-93
2021/07/28 12:12:54;;;;;;;7.18;4.40;;;25.50;86.10;;;;;;6197872;23;20116;-93
2021/07/28 12:16:32;;;;;;;;;;;;;;;;;;;;;
2021/07/28 12:20:33;;;;;;;4.25;3.75;;;24.80;86.60;;;;;;6142536;23;20026;-93
2021/07/28 12:23:36;;;;;;;;;;;;;;;;;;;;;
2021/07/28 12:26:46;;;;;;;5.28;3.83;;;25.90;81.30;;;;;;6144188;23;20163;-91
2021/07/28 12:29:37;;;;;;;6.80;3.80;;;25.90;76.90;;;;;;6183642;23;20191;-92
2021/07/28 12:32:53;;;;;;;;;;;;;;;;;;;;;
2021/07/28 12:36:00;;;;;;;5.35;3.70;;;26.80;74.20;;;;;;6183704;23;20025;-93
2021/07/28 12:38:58;;;;;;;4.07;3.67;;;26.10;72.90;;;;;;6183329;23;20020;-91
2021/07/28 12:42:40;;;;;;;;;;;;;;;;;;;;;
2021/07/28 12:46:01;;;;;;;8.38;3.95;;;26.50;72.80;;;;;;6247869;22;20414;-93
2021/07/28 12:49:18;;;;;;;4.43;3.63;;;26.40;73.10;;;;;;6246056;23;20020;-93
2021/07/28 12:52:07;;;;;;;4.55;3.63;;;26.80;68.60;;;;;;6246753;23;20051;-93
2021/07/28 12:55:25;;;;;;;7.10;3.90;;;25.80;73.50;;;;;;6246919;23;20032;-91
2021/07/28 12:58:38;;;;;;;4.57;3.80;;;25.30;74.60;;;;;;6246955;23;20024;-93
2021/07/28 13:01:50;;;;;;;5.63;3.67;;;25.50;74.60;;;;;;6241887;23;20047;-90
2021/07/28 13:04:38;;;;;;;6.95;3.78;;;25.50;72.90;;;;;;6224937;23;20044;-92
2021/07/28 13:10:21;;;;;;;8.35;4.57;;;24.40;75.30;;;;;;6223747;23;20024;-90
2021/07/28 13:13:09;;;;;;;5.47;4.00;;;23.80;79.00;;;;;;6223383;23;20032;-93
2021/07/28 13:16:00;;;;;;;4.93;4.43;;;23.40;81.30;;;;;;6226586;23;20403;-91
2021/07/28 13:18:48;;;;;;;6.45;4.03;;;23.00;82.40;;;;;;6225919;23;20024;-93
2021/07/28 13:21:35;;;;;;;8.38;4.05;;;23.20;83.70;;;;;;6246468;23;20020;-91
2021/07/28 13:24:22;;;;;;;5.25;4.13;;;23.40;82.90;;;;;;6244820;23;20024;-92
2021/07/28 13:27:10;;;;;;;6.75;4.30;;;23.40;82.70;;;;;;6246278;23;20028;-92
2021/07/28 13:29:59;;;;;;;6.68;3.95;;;23.40;84.70;;;;;;6224253;23;20106;-93
2021/07/28 13:32:50;;;;;;;6.78;4.55;;;23.30;85.10;;;;;;6245998;23;20031;-92
2021/07/28 13:35:37;;;;;;;6.32;3.80;;;23.20;84.70;;;;;;6247968;22;20027;-92
2021/07/28 13:38:24;;;;;;;6.05;4.05;;;24.00;82.80;;;;;;6245369;23;20036;-92
2021/07/28 13:41:12;;;;;;;5.78;3.72;;;24.90;80.60;;;;;;6245608;23;20331;-92
2021/07/28 13:44:00;;;;;;;6.00;3.60;;;25.90;74.80;;;;;;6226334;23;20100;-92
2021/07/28 13:46:47;;;;;;;4.38;3.70;;;26.80;71.40;;;;;;6246092;23;20051;-90
2021/07/28 13:49:39;;;;;;;4.25;3.75;;;27.90;68.10;;;;;;6227137;23;20035;-92
2021/07/28 13:52:27;;;;;;;6.38;3.83;;;27.50;66.90;;;;;;6245686;23;20083;-93
2021/07/28 13:55:16;;;;;;;5.95;3.90;;;27.20;66.20;;;;;;6250098;23;20076;-92
2021/07/28 13:58:03;;;;;;;4.47;3.40;;;27.30;67.40;;;;;;6247201;23;20028;-93
2021/07/28 14:00:51;;;;;;;7.38;3.95;;;25.90;68.60;;;;;;6224333;23;20024;-93
2021/07/28 14:03:40;;;;;;;7.60;4.30;;;25.00;73.10;;;;;;6222409;23;20063;-93
2021/07/28 14:06:28;;;;;;;4.53;4.13;;;24.50;74.10;;;;;;6244969;23;20032;-92
2021/07/28 14:09:15;;;;;;;5.90;4.35;;;24.80;74.50;;;;;;6245881;23;20027;-92
2021/07/28 14:12:05;;;;;;;6.35;4.00;;;25.00;74.60;;;;;;6248563;23;20095;-92
2021/07/28 14:14:56;;;;;;;7.30;4.20;;;25.80;71.00;;;;;;6249009;23;20075;-92
2021/07/28 14:17:46;;;;;;;6.73;4.13;;;26.30;70.70;;;;;;6249229;23;20130;-93
2021/07/28 14:20:36;;;;;;;5.07;3.78;;;25.70;70.10;;;;;;6247664;23;20020;-93
2021/07/28 14:28:07;;;;;;;5.03;3.83;;;24.20;73.70;;;;;;6249551;23;20034;-93
2021/07/28 14:31:11;;;;;;;4.88;4.00;;;24.00;76.00;;;;;;6157468;23;20665;-93
2021/07/28 14:39:04;;;;;;;5.25;3.50;;;25.30;73.10;;;;;;6217524;23;20020;-92
2021/07/28 14:46:48;;;;;;;;;;;;;;;;;;;;;
2021/07/28 14:53:49;;;;;;;4.05;3.65;;;27.60;63.50;;;;;;6111933;23;20089;-93
2021/07/28 14:57:20;;;;;;;;;;;;;;;;;;;;;
2021/07/28 15:00:50;;;;;;;5.75;3.28;;;27.30;61.90;;;;;;6224586;23;20055;-93
2021/07/28 15:03:52;;;;;;;4.03;3.45;;;27.50;62.00;;;;;;6248475;23;20027;-91
2021/07/28 15:06:39;;;;;;;4.93;3.58;;;27.70;59.20;;;;;;6246921;23;20036;-92
2021/07/28 15:10:42;;;;;;;;;;;;;;;;;;;;;
2021/07/28 15:13:59;;;;;;;6.10;3.90;;;28.00;59.70;;;;;;6102293;23;20018;-94
2021/07/28 15:16:49;;;;;;;5.82;4.47;;;26.80;61.90;;;;;;6099143;23;20034;-91
2021/07/28 15:19:39;;;;;;;5.28;4.15;;;25.60;65.60;;;;;;6096955;23;20335;-93
2021/07/28 15:22:40;;;;;;;4.72;3.85;;;25.20;67.10;;;;;;6095505;23;20027;-92
2021/07/28 15:25:32;;;;;;;4.40;3.78;;;25.30;66.20;;;;;;6249317;23;20044;-91
2021/07/28 15:28:58;;;;;;;8.75;3.70;;;24.40;68.70;;;;;;6250202;23;20023;-94
2021/07/28 15:31:45;;;;;;;5.13;3.80;;;23.90;73.20;;;;;;6247215;23;20020;-93
2021/07/28 15:34:37;;;;;;;4.10;3.40;;;23.80;74.10;;;;;;6249679;23;20097;-92
2021/07/28 15:37:33;;;;;;;3.83;3.30;;;23.50;75.80;;;;;;6250203;22;20057;-94
2021/07/28 15:41:09;;;;;;;4.75;4.20;;;24.10;72.80;;;;;;6231879;23;20100;-90
2021/07/28 15:44:12;;;;;;;4.65;3.40;;;25.40;69.50;;;;;;6108770;23;20033;-92
2021/07/28 15:47:26;;;;;;;;;;;;;;;;;;;;;
2021/07/28 15:50:16;;;;;;;5.75;4.45;;;24.60;68.40;;;;;;6052638;23;20037;-91
2021/07/28 15:53:21;;;;;;;7.28;4.20;;;23.70;73.40;;;;;;6077235;23;20101;-92
2021/07/28 15:56:29;;;;;;;5.15;4.00;;;23.50;77.60;;;;;;6101190;23;20109;-92
2021/07/28 15:59:54;;;;;;;7.05;4.03;;;24.80;72.90;;;;;;6089526;23;20030;-93
2021/07/28 16:03:19;;;;;;;;;;;;;;;;;;;;;
2021/07/28 16:06:30;;;;;;;4.35;3.85;;;24.30;73.80;;;;;;6111374;23;20022;-93
2021/07/28 16:09:23;;;;;;;5.40;4.00;;;24.40;73.70;;;;;;6109661;23;20078;-93
2021/07/28 16:12:20;;;;;;;5.20;3.42;;;25.30;69.20;;;;;;6116821;23;20050;-92
2021/07/28 16:15:42;;;;;;;3.42;3.13;;;25.30;66.50;;;;;;6130560;23;20032;-92
2021/07/28 16:19:09;;;;;;;4.20;3.33;;;25.10;66.00;;;;;;6125829;23;20352;-91
2021/07/28 16:22:40;;;;;;;5.63;3.17;;;25.10;63.90;;;;;;6186081;23;20139;-94
2021/07/28 16:26:29;;;;;;;6.70;3.53;;;25.20;64.20;;;;;;6098714;23;20653;-92
2021/07/28 16:30:19;;;;;;;;;;;;;;;;;;;;;
2021/07/28 16:33:32;;;;;;;4.78;3.50;;;25.00;68.30;;;;;;5957483;24;20535;-92
2021/07/28 16:37:33;;;;;;;3.90;3.47;;;24.50;68.00;;;;;;5978048;23;20023;-92
2021/07/28 16:40:22;;;;;;;5.65;3.65;;;24.10;70.30;;;;;;6012231;23;20079;-92
2021/07/28 16:43:33;;;;;;;5.95;3.60;;;23.60;73.60;;;;;;5927594;24;20387;-92
2021/07/28 16:47:11;;;;;;;4.68;3.83;;;23.60;72.50;;;;;;5913182;24;20356;-92
2021/07/28 17:02:12;;;;;;;5.47;4.13;;;23.00;76.40;;;;;;5845374;24;20165;-92
2021/07/28 17:09:31;;;;;;;;;;;;;;;;;;;;;
2021/07/28 17:12:47;;;;;;;7.88;3.85;;;22.60;78.10;;;;;;5849801;24;20377;-93
2021/07/28 17:16:02;;;;;;;;;;;;;;;;;;;;;
2021/07/28 17:26:19;;;;;;;8.32;4.85;;;22.50;79.90;;;;;;5773242;24;20020;-93
2021/07/28 17:29:06;;;;;;;4.07;3.47;;;22.50;81.20;;;;;;5805695;24;20296;-92
2021/07/28 17:32:01;;;;;;;4.45;3.28;;;22.40;84.70;;;;;;5964910;23;20047;-92
2021/07/28 17:34:53;;;;;;;6.15;3.20;;;22.20;86.80;;;;;;6035118;23;20042;-92
2021/07/28 17:37:46;;;;;;;4.75;2.90;;;22.10;90.00;;;;;;6069688;23;20032;-90
2021/07/28 17:40:41;;;;;;;2.83;2.28;;;21.80;91.20;;;;;;6252251;22;20059;-93
2021/07/28 17:43:28;;;;;;;2.35;2.15;;;21.40;92.50;;;;;;6244399;23;20031;-93
2021/07/28 17:46:16;;;;;;;5.22;2.60;;;21.20;93.70;;;;;;6243810;23;20028;-92
2021/07/28 17:49:16;;;;;;;3.13;2.50;;;21.00;94.90;;;;;;6246261;23;20119;-93
2021/07/28 17:52:11;;;;;;;6.80;3.23;;;20.70;97.40;;;;;;6262967;22;20026;-93
2021/07/28 17:55:34;;;;;;;;;;;;;;;;;;;;;
2021/07/28 17:58:38;;;;;;;4.47;3.92;;;19.60;99.90;;;;;;6181247;23;20021;-91
2021/07/28 18:01:31;;;;;;;8.88;5.03;;;19.00;99.90;;;;;;6248268;23;20028;-91
2021/07/28 18:04:42;;;;;;;6.20;4.88;;;18.60;99.90;;;;;;6267925;22;20040;-92
2021/07/28 18:07:43;;;;;;;6.25;5.20;;;18.30;99.90;;;;;;6230362;23;20028;-93
2021/07/28 18:10:31;;;;;;;8.75;5.70;;;18.10;99.90;;;;;;6248342;22;20032;-92
2021/07/28 18:13:18;;;;;;;7.57;5.45;;;17.90;99.90;;;;;;6248182;22;20052;-92
2021/07/28 18:16:06;;;;;;;8.60;5.93;;;17.80;99.90;;;;;;6245638;23;20085;-92
2021/07/28 18:18:53;;;;;;;6.88;6.05;;;17.80;99.90;;;;;;6223030;23;20090;-92
2021/07/28 18:21:41;;;;;;;9.63;5.60;;;17.70;99.90;;;;;;6226403;22;20028;-92
2021/07/28 18:24:31;;;;;;;9.35;5.90;;;17.70;99.90;;;;;;6248472;22;20034;-92
2021/07/28 18:27:19;;;;;;;7.28;5.10;;;17.70;99.90;;;;;;6245891;22;20031;-92
2021/07/28 18:30:08;;;;;;;7.22;6.07;;;17.60;99.90;;;;;;6245633;22;20028;-90
2021/07/28 18:32:57;;;;;;;6.60;5.68;;;17.50;99.90;;;;;;6248047;22;20020;-91
2021/07/28 18:35:45;;;;;;;6.78;5.50;;;17.40;99.90;;;;;;6258847;22;20035;-91
2021/07/28 18:38:34;;;;;;;6.72;5.30;;;17.40;99.90;;;;;;6257754;23;20304;-91
2021/07/28 18:41:21;;;;;;;6.82;5.53;;;17.40;99.90;;;;;;6254820;23;20024;-92
2021/07/28 18:44:13;;;;;;;7.43;5.68;;;17.30;99.90;;;;;;6255469;23;20024;-91
2021/07/28 18:47:02;;;;;;;7.25;5.05;;;17.30;99.90;;;;;;6257342;23;20024;-92
2021/07/28 18:49:50;;;;;;;5.93;5.32;;;17.20;99.90;;;;;;6266112;22;20096;-91
2021/07/28 18:52:38;;;;;;;6.22;5.18;;;17.20;99.90;;;;;;6265640;22;20024;-92
2021/07/28 18:55:31;;;;;;;7.95;5.68;;;17.20;99.90;;;;;;6230547;23;20089;-92
2021/07/28 18:58:18;;;;;;;10.05;4.82;;;17.20;99.90;;;;;;6228947;23;20085;-91
2021/07/28 19:01:06;;;;;;;6.05;4.65;;;17.10;99.90;;;;;;6222229;23;20035;-91
2021/07/28 19:03:55;;;;;;;5.72;4.57;;;17.10;99.90;;;;;;6240887;23;20054;-92
2021/07/28 19:06:42;;;;;;;6.97;5.05;;;17.10;99.90;;;;;;6246309;22;20024;-92
2021/07/28 19:09:32;;;;;;;7.60;4.82;;;17.00;99.90;;;;;;6243103;23;20028;-92
2021/07/28 19:12:20;;;;;;;10.38;5.25;;;17.00;99.90;;;;;;6245871;23;20028;-90
2021/07/28 19:15:12;;;;;;;6.25;4.70;;;17.00;99.90;;;;;;6222462;23;20097;-92
2021/07/28 19:18:05;;;;;;;6.95;4.57;;;16.90;99.90;;;;;;6224774;23;20106;-90
2021/07/28 19:20:57;;;;;;;6.97;4.68;;;16.80;99.90;;;;;;6244981;23;20279;-92
2021/07/28 19:23:44;;;;;;;5.38;4.88;;;16.70;99.90;;;;;;6222265;23;20056;-92
2021/07/28 19:26:32;;;;;;;6.28;4.70;;;16.70;99.90;;;;;;6224528;23;20124;-91
2021/07/28 19:29:40;;;;;;;5.65;4.50;;;16.60;99.90;;;;;;6224031;23;20035;-93
2021/07/28 19:32:27;;;;;;;7.68;4.78;;;16.50;99.90;;;;;;6245086;23;20035;-92
2021/07/28 19:35:15;;;;;;;6.72;4.45;;;16.50;99.90;;;;;;6247505;23;20042;-92
2021/07/28 19:38:13;;;;;;;7.72;4.82;;;16.40;99.90;;;;;;6245707;23;20074;-93
2021/07/28 19:41:00;;;;;;;7.75;4.28;;;16.40;99.90;;;;;;6224996;23;20435;-92
2021/07/28 19:43:57;;;;;;;9.23;4.50;;;16.40;99.90;;;;;;6227886;23;20300;-94
2021/07/28 19:46:45;;;;;;;10.27;4.80;;;16.40;99.90;;;;;;6252663;23;20028;-93
2021/07/28 19:50:37;;;;;;;7.28;5.35;;;16.30;99.90;;;;;;6251907;23;20166;-94
2021/07/28 19:53:47;;;;;;;5.95;4.35;;;16.20;99.90;;;;;;6135432;23;20421;-93
2021/07/28 19:56:49;;;;;;;5.80;4.53;;;16.20;99.90;;;;;;6229520;23;20379;-94
2021/07/28 19:59:49;;;;;;;5.05;4.32;;;16.20;99.90;;;;;;6248065;23;20099;-93
2021/07/28 20:15:34;;;;;;;6.65;5.85;;;15.80;99.90;;;;;;6171741;23;20428;-94
2021/07/28 20:18:36;;;;;;;11.23;5.32;;;15.70;99.90;;;;;;6191558;23;20028;-91
2021/07/28 20:22:19;;;;;;;8.63;5.50;;;15.80;99.90;;;;;;6166572;23;20039;-92
2021/07/28 20:26:17;;;;;;;;;;;;;;;;;;;;;
2021/07/28 20:33:23;;;;;;;5.97;4.57;;;15.70;99.90;;;;;;5861336;24;20017;-93
2021/07/28 20:36:15;;;;;;;7.15;5.45;;;15.70;99.90;;;;;;5967395;23;20015;-92
2021/07/28 21:04:54;;;;;;;5.18;4.18;;;15.50;99.90;;;;;;5935735;23;20047;-93
2021/07/28 22:31:42;;;;;;;;;;;;;;;;;;;;;
2021/07/28 23:08:00;;;;;;;;;;;;;;;;;;;;;
2021/07/28 23:15:07;;;;;;;8.95;6.18;;;14.80;99.90;;;;;;5986632;23;20024;-92
2021/07/28 23:23:05;;;;;;;6.72;5.55;;;14.90;99.90;;;;;;6016537;23;20034;-93
2021/07/28 23:26:29;;;;;;;9.63;5.28;;;15.00;99.90;;;;;;6071936;23;20062;-94
2021/07/28 23:29:19;;;;;;;6.53;5.05;;;15.00;99.90;;;;;;6112990;23;20047;-94
2021/07/28 23:45:29;;;;;;;;;;;;;;;;;;;;;
2021/07/28 23:53:02;;;;;;;9.27;5.80;;;14.80;99.90;;;;;;5876722;24;20078;-93
2021/07/28 23:56:30;;;;;;;6.95;5.47;;;14.80;99.90;;;;;;5875362;24;20057;-93
2021/07/28 23:59:16;;;;;;;7.63;4.13;;;14.70;99.90;;;;;;5875340;24;20014;-93
